Time;durP1;ratioP1;P1;durP2;ratioP2;P2;SDS_P1;SDS_P2;PMS_P1;PMS_P2;Temp;Humidity;BMP_temperature;BMP_pressure;BME280_temperature;BME280_humidity;BME280_pressure;Samples;Min_cycle;Max_cycle;Signal;HPM_P1;HPM_P2
2023/06/23 00:01:31;;;;;;;16.35;8.13;;;26.20;76.90;;;;;;5052269;28;20040;-71
2023/06/23 00:03:59;;;;;;;17.83;8.60;;;26.20;77.10;;;;;;5053531;28;20027;-72
2023/06/23 00:06:25;;;;;;;16.58;8.10;;;26.20;77.30;;;;;;5053364;28;20044;-73
2023/06/23 00:08:51;;;;;;;16.00;8.23;;;26.10;77.10;;;;;;5053399;28;20374;-73
2023/06/23 00:11:17;;;;;;;18.17;8.30;;;26.10;77.20;;;;;;5053311;28;20032;-73
2023/06/23 00:13:43;;;;;;;15.00;8.48;;;26.10;77.10;;;;;;5053290;28;20381;-74
2023/06/23 00:16:09;;;;;;;20.88;8.38;;;26.00;77.30;;;;;;5052868;28;20048;-74
2023/06/23 00:18:36;;;;;;;18.85;8.30;;;26.00;77.10;;;;;;5052986;28;20071;-73
2023/06/23 00:21:06;;;;;;;16.42;8.35;;;26.00;76.90;;;;;;5053188;28;20063;-73
2023/06/23 00:23:33;;;;;;;21.85;7.95;;;26.00;76.90;;;;;;5053230;28;20075;-73
2023/06/23 00:25:59;;;;;;;12.85;7.63;;;25.90;76.90;;;;;;5053158;28;20120;-74
2023/06/23 00:28:25;;;;;;;17.63;8.38;;;26.00;77.00;;;;;;5052721;28;20523;-73
2023/06/23 00:30:54;;;;;;;20.13;8.20;;;25.90;77.10;;;;;;5052793;28;20028;-72
2023/06/23 00:33:20;;;;;;;17.75;9.20;;;25.90;77.40;;;;;;5052921;28;20031;-73
2023/06/23 00:35:46;;;;;;;13.88;8.32;;;25.90;77.50;;;;;;5052776;28;20124;-73
2023/06/23 00:38:13;;;;;;;14.63;7.90;;;25.90;77.50;;;;;;5052614;28;20521;-73
2023/06/23 00:40:39;;;;;;;13.30;7.43;;;25.90;77.40;;;;;;5052951;28;20021;-73
2023/06/23 00:43:05;;;;;;;13.25;7.72;;;25.90;77.20;;;;;;5052714;28;20511;-73
2023/06/23 00:45:31;;;;;;;24.63;8.55;;;25.90;77.20;;;;;;5052580;28;20508;-73
2023/06/23 00:47:57;;;;;;;16.85;8.00;;;25.80;77.10;;;;;;5052447;28;20103;-74
2023/06/23 00:50:24;;;;;;;12.85;8.20;;;25.80;77.40;;;;;;5052542;28;20025;-73
2023/06/23 00:52:52;;;;;;;20.23;8.82;;;25.80;77.60;;;;;;5052708;28;20029;-73
2023/06/23 00:55:28;;;;;;;19.45;8.45;;;25.80;77.70;;;;;;5052650;28;20096;-73
2023/06/23 00:57:58;;;;;;;20.38;9.40;;;25.80;77.80;;;;;;5051251;28;20028;-74
2023/06/23 01:00:27;;;;;;;18.00;8.35;;;25.80;78.10;;;;;;5049756;28;20130;-74
2023/06/23 01:02:54;;;;;;;15.95;8.90;;;25.70;78.30;;;;;;5049978;28;20437;-73
2023/06/23 01:05:26;;;;;;;20.42;8.98;;;25.70;78.30;;;;;;5050109;28;20025;-73
2023/06/23 01:08:15;;;;;;;13.75;8.25;;;25.70;78.20;;;;;;5052383;28;20037;-74
2023/06/23 01:10:56;;;;;;;23.35;9.52;;;25.70;78.30;;;;;;5052338;28;20021;-74
2023/06/23 01:13:37;;;;;;;21.75;9.82;;;25.70;78.40;;;;;;5052025;28;20423;-73
2023/06/23 01:16:17;;;;;;;21.33;8.93;;;25.60;78.50;;;;;;5052330;28;20601;-74
2023/06/23 01:18:53;;;;;;;16.23;8.20;;;25.60;78.50;;;;;;5052002;28;20032;-74
2023/06/23 01:21:32;;;;;;;17.05;8.10;;;25.50;78.00;;;;;;5052060;28;20033;-74
2023/06/23 01:24:25;;;;;;;11.75;7.55;;;25.50;77.70;;;;;;5052373;28;20025;-73
2023/06/23 01:27:11;;;;;;;19.88;8.20;;;25.50;77.00;;;;;;5052294;28;20033;-73
2023/06/23 01:29:40;;;;;;;16.55;7.57;;;25.50;76.40;;;;;;5051859;28;20481;-73
2023/06/23 01:32:19;;;;;;;13.68;6.95;;;25.50;76.40;;;;;;5052244;28;20542;-74
2023/06/23 01:34:48;;;;;;;18.23;8.77;;;25.50;76.80;;;;;;5052153;28;20190;-72
2023/06/23 01:37:23;;;;;;;16.02;7.90;;;25.50;77.00;;;;;;5051973;28;20036;-73
2023/06/23 01:39:53;;;;;;;13.88;8.15;;;25.40;77.30;;;;;;5052084;28;20025;-74
2023/06/23 01:42:22;;;;;;;16.25;8.25;;;25.40;77.50;;;;;;5052101;28;20483;-72
2023/06/23 01:44:55;;;;;;;14.10;8.73;;;25.40;77.80;;;;;;5052028;28;20500;-73
2023/06/23 01:47:26;;;;;;;16.30;8.48;;;25.40;78.00;;;;;;5050887;28;20090;-73
2023/06/23 01:49:54;;;;;;;15.13;8.38;;;25.40;78.40;;;;;;5052193;28;20492;-74
2023/06/23 01:52:21;;;;;;;21.33;8.35;;;25.40;78.50;;;;;;5052215;28;20366;-73
2023/06/23 01:54:49;;;;;;;15.50;9.10;;;25.30;78.80;;;;;;5052029;28;20017;-73
2023/06/23 01:57:17;;;;;;;24.58;8.70;;;25.30;78.90;;;;;;5051948;28;20032;-72
2023/06/23 01:59:45;;;;;;;19.42;9.48;;;25.20;78.70;;;;;;5051916;28;20455;-73
2023/06/23 02:02:13;;;;;;;19.92;8.75;;;25.20;78.80;;;;;;5051593;28;20040;-73
2023/06/23 02:04:40;;;;;;;19.30;9.18;;;25.20;78.70;;;;;;5051873;28;20108;-72
2023/06/23 02:07:09;;;;;;;18.70;7.55;;;25.20;78.60;;;;;;5051939;28;20037;-73
2023/06/23 02:09:37;;;;;;;17.58;8.35;;;25.20;78.50;;;;;;5051818;28;20503;-72
2023/06/23 02:12:06;;;;;;;18.13;9.02;;;25.20;78.50;;;;;;5052289;28;20032;-73
2023/06/23 02:14:35;;;;;;;16.55;8.27;;;25.20;78.50;;;;;;5053559;28;20480;-73
2023/06/23 02:17:03;;;;;;;20.35;8.20;;;25.20;78.70;;;;;;5055619;28;20028;-73
2023/06/23 02:19:31;;;;;;;13.88;7.60;;;25.20;78.70;;;;;;5055328;28;20507;-73
2023/06/23 02:21:58;;;;;;;13.45;7.60;;;25.10;78.50;;;;;;5055291;28;20017;-73
2023/06/23 02:24:25;;;;;;;14.38;8.13;;;25.10;78.20;;;;;;5055318;28;20025;-73
2023/06/23 02:26:53;;;;;;;13.70;6.53;;;25.10;77.80;;;;;;5055458;28;20392;-73
2023/06/23 02:29:19;;;;;;;16.83;7.30;;;25.10;77.60;;;;;;5055007;28;20028;-72
2023/06/23 02:31:46;;;;;;;13.95;7.25;;;25.00;77.30;;;;;;5055063;28;20025;-74
2023/06/23 02:34:12;;;;;;;19.48;7.80;;;25.00;77.40;;;;;;5055175;28;20446;-73
2023/06/23 02:36:46;;;;;;;19.85;7.50;;;25.00;77.40;;;;;;5054732;28;20056;-74
2023/06/23 02:39:15;;;;;;;15.18;7.32;;;25.00;77.30;;;;;;5053797;28;20383;-74
2023/06/23 02:41:43;;;;;;;16.30;7.50;;;25.00;77.40;;;;;;5053828;28;20151;-73
2023/06/23 02:44:15;;;;;;;10.98;7.15;;;25.00;77.40;;;;;;5054844;28;20464;-73
2023/06/23 02:46:46;;;;;;;13.25;6.45;;;25.00;77.10;;;;;;5055177;28;20069;-73
2023/06/23 02:49:17;;;;;;;15.07;6.67;;;24.90;76.60;;;;;;5053739;28;20025;-73
2023/06/23 02:51:44;;;;;;;;;;;25.00;76.50;;;;;;5055254;28;20029;-73
2023/06/23 02:54:17;;;;;;;15.85;7.07;;;25.00;76.50;;;;;;5054906;28;19904;-72
2023/06/23 02:56:44;;;;;;;12.48;6.05;;;25.00;76.60;;;;;;5054666;28;20052;-72
2023/06/23 02:59:16;;;;;;;13.02;6.63;;;24.90;76.40;;;;;;5054561;28;20032;-72
2023/06/23 03:01:46;;;;;;;15.00;6.20;;;24.90;76.10;;;;;;5054910;28;20105;-72
2023/06/23 03:04:12;;;;;;;9.45;5.82;;;25.00;76.20;;;;;;5054871;28;20462;-73
2023/06/23 03:06:39;;;;;;;15.18;5.85;;;24.90;76.10;;;;;;5054583;28;20044;-73
2023/06/23 03:09:08;;;;;;;17.10;6.20;;;25.00;76.30;;;;;;5054491;28;20025;-73
2023/06/23 03:11:34;;;;;;;13.10;6.35;;;24.90;76.20;;;;;;5054215;28;20505;-73
2023/06/23 03:14:00;;;;;;;14.75;7.22;;;24.90;76.00;;;;;;5052886;28;20359;-73
2023/06/23 03:17:08;;;;;;;13.05;6.95;;;24.90;76.10;;;;;;5052879;28;20075;-75
2023/06/23 03:19:55;;;;;;;10.65;6.70;;;24.90;76.30;;;;;;5020510;28;20412;-73
2023/06/23 03:22:32;;;;;;;16.77;6.32;;;24.90;76.40;;;;;;5054473;28;20509;-73
2023/06/23 03:25:03;;;;;;;18.15;6.60;;;24.90;76.40;;;;;;5052699;28;20032;-72
2023/06/23 03:27:32;;;;;;;15.67;6.33;;;24.90;76.40;;;;;;5053390;28;20119;-72
2023/06/23 03:30:07;;;;;;;17.40;6.63;;;24.90;76.40;;;;;;5052788;28;20021;-73
2023/06/23 03:32:38;;;;;;;18.05;6.65;;;24.90;76.70;;;;;;5053927;28;20029;-73
2023/06/23 03:35:11;;;;;;;14.50;7.00;;;24.90;76.70;;;;;;5054147;28;20033;-73
2023/06/23 03:37:45;;;;;;;12.50;6.55;;;24.90;76.40;;;;;;5054196;28;20471;-72
2023/06/23 03:40:14;;;;;;;13.32;6.43;;;24.90;76.20;;;;;;5054136;28;20025;-74
2023/06/23 03:42:46;;;;;;;15.10;7.00;;;24.90;76.40;;;;;;5053714;28;20029;-72
2023/06/23 03:45:14;;;;;;;21.70;7.40;;;25.00;76.40;;;;;;5053807;28;20021;-73
2023/06/23 03:47:43;;;;;;;16.90;6.95;;;24.90;76.60;;;;;;5053620;28;20040;-73
2023/06/23 03:50:11;;;;;;;22.30;7.40;;;24.90;76.90;;;;;;5053813;28;20021;-73
2023/06/23 03:52:42;;;;;;;16.60;7.97;;;24.90;77.10;;;;;;5053638;28;20052;-73
2023/06/23 03:55:11;;;;;;;19.38;8.70;;;24.90;77.50;;;;;;5053340;28;20017;-72
2023/06/23 03:57:38;;;;;;;17.75;8.55;;;24.90;78.00;;;;;;5053674;28;20100;-72
2023/06/23 04:00:06;;;;;;;31.58;8.55;;;24.90;78.60;;;;;;5053624;28;20070;-72
2023/06/23 04:02:34;;;;;;;15.88;8.10;;;24.80;78.60;;;;;;5052433;28;20408;-73
2023/06/23 04:05:02;;;;;;;17.75;7.68;;;24.80;78.50;;;;;;5053698;28;20381;-73
2023/06/23 04:07:29;;;;;;;21.67;7.25;;;24.80;78.50;;;;;;5053082;28;20037;-73
2023/06/23 04:10:00;;;;;;;16.48;7.35;;;24.80;79.00;;;;;;5053325;28;20108;-73
2023/06/23 04:12:27;;;;;;;14.93;7.40;;;24.80;78.20;;;;;;5053452;28;20086;-73
2023/06/23 04:14:54;;;;;;;18.77;6.93;;;24.80;78.10;;;;;;5053161;28;20032;-73
2023/06/23 04:17:25;;;;;;;17.20;7.03;;;24.90;78.20;;;;;;5052903;28;20048;-72
2023/06/23 04:19:55;;;;;;;20.67;7.22;;;24.90;78.10;;;;;;5052871;28;20075;-73
2023/06/23 04:22:23;;;;;;;15.98;7.35;;;24.90;77.90;;;;;;5053163;28;20028;-73
2023/06/23 04:24:50;;;;;;;21.88;8.73;;;24.90;77.70;;;;;;5053112;28;20074;-72
2023/06/23 04:27:18;;;;;;;19.55;8.45;;;24.90;78.20;;;;;;5053019;28;20120;-73
2023/06/23 04:29:46;;;;;;;24.17;8.32;;;24.90;78.80;;;;;;5052760;28;20163;-73
2023/06/23 04:32:15;;;;;;;12.40;8.55;;;24.90;79.00;;;;;;5053026;28;20432;-73
2023/06/23 04:34:42;;;;;;;19.98;8.85;;;24.90;79.40;;;;;;5052858;28;20028;-73
2023/06/23 04:37:17;;;;;;;13.48;8.57;;;24.90;79.80;;;;;;5055426;28;20047;-73
2023/06/23 04:39:45;;;;;;;19.05;8.18;;;24.80;79.70;;;;;;5072891;28;20032;-73
2023/06/23 04:42:13;;;;;;;21.80;8.27;;;24.80;80.00;;;;;;5071513;28;20025;-73
2023/06/23 04:44:47;;;;;;;19.02;7.57;;;24.80;80.30;;;;;;5072474;28;20024;-73
2023/06/23 04:47:19;;;;;;;24.52;8.70;;;24.70;80.40;;;;;;5072760;28;20111;-73
2023/06/23 04:49:47;;;;;;;15.63;8.10;;;24.70;80.30;;;;;;5072734;28;20052;-73
2023/06/23 04:52:14;;;;;;;15.43;7.75;;;24.70;80.00;;;;;;5072839;28;20025;-73
2023/06/23 04:54:44;;;;;;;14.90;7.75;;;24.70;79.80;;;;;;5072848;28;20388;-73
2023/06/23 04:57:23;;;;;;;18.73;8.20;;;24.70;79.90;;;;;;5072711;28;20477;-73
2023/06/23 04:59:54;;;;;;;16.20;8.25;;;24.80;80.20;;;;;;5072598;28;20104;-73
2023/06/23 05:02:21;;;;;;;14.77;7.47;;;24.70;80.20;;;;;;5072970;28;20361;-73
2023/06/23 05:04:49;;;;;;;10.52;7.65;;;24.80;80.30;;;;;;5072970;28;20025;-73
2023/06/23 05:07:17;;;;;;;18.10;8.35;;;24.80;80.60;;;;;;5072549;28;20063;-73
2023/06/23 05:09:48;;;;;;;23.27;8.18;;;24.90;80.80;;;;;;5072389;28;20062;-73
2023/06/23 05:12:15;;;;;;;13.45;8.20;;;24.90;81.00;;;;;;5072581;28;20033;-73
2023/06/23 05:14:43;;;;;;;20.95;8.45;;;25.00;81.10;;;;;;5072652;28;20028;-73
2023/06/23 05:17:11;;;;;;;17.70;7.65;;;25.00;81.00;;;;;;5072108;28;20044;-73
2023/06/23 05:19:41;;;;;;;18.27;8.38;;;25.10;81.10;;;;;;5071888;28;20016;-73
2023/06/23 05:22:10;;;;;;;16.23;7.57;;;25.10;81.10;;;;;;5072184;28;20503;-73
2023/06/23 05:24:40;;;;;;;15.52;7.57;;;25.10;80.90;;;;;;5072427;28;20016;-73
2023/06/23 05:27:08;;;;;;;15.00;7.03;;;25.10;80.60;;;;;;5072474;28;20037;-73
2023/06/23 05:29:41;;;;;;;15.93;6.65;;;25.20;80.80;;;;;;5072466;28;20021;-73
2023/06/23 05:32:11;;;;;;;20.20;6.88;;;25.20;80.60;;;;;;5072528;28;20021;-73
2023/06/23 05:34:39;;;;;;;20.33;7.75;;;25.20;80.20;;;;;;5072282;28;20020;-73
2023/06/23 05:37:06;;;;;;;21.88;7.57;;;25.30;79.50;;;;;;5072352;28;20051;-73
2023/06/23 05:39:36;;;;;;;13.02;6.38;;;25.30;78.70;;;;;;5072627;28;20024;-73
2023/06/23 05:42:02;;;;;;;17.00;7.10;;;25.30;78.40;;;;;;5072040;28;20473;-73
2023/06/23 05:44:28;;;;;;;12.40;6.55;;;25.30;78.10;;;;;;5072196;28;20055;-73
2023/06/23 05:46:58;;;;;;;17.90;7.07;;;25.40;78.00;;;;;;5071948;28;20039;-73
2023/06/23 05:49:27;;;;;;;17.05;6.65;;;25.40;78.10;;;;;;5073673;28;20017;-73
2023/06/23 05:52:02;;;;;;;18.50;7.78;;;25.40;77.80;;;;;;5075880;28;20108;-72
2023/06/23 05:54:30;;;;;;;17.58;6.85;;;25.50;77.80;;;;;;5076054;28;20044;-73
2023/06/23 05:57:00;;;;;;;16.58;6.10;;;25.50;78.00;;;;;;5075981;28;20070;-73
2023/06/23 05:59:36;;;;;;;12.05;6.47;;;25.60;78.10;;;;;;5076188;28;20036;-73
2023/06/23 06:02:05;;;;;;;15.32;7.15;;;25.60;78.50;;;;;;5075745;28;20078;-73
2023/06/23 06:04:33;;;;;;;15.98;7.50;;;25.70;79.30;;;;;;5075963;28;20032;-73
2023/06/23 06:07:01;;;;;;;17.20;7.47;;;25.70;78.50;;;;;;5075619;28;20503;-73
2023/06/23 06:09:31;;;;;;;22.52;7.78;;;25.70;78.30;;;;;;5075796;28;20020;-73
2023/06/23 06:11:58;;;;;;;19.13;7.35;;;25.80;78.40;;;;;;5074251;28;20027;-73
2023/06/23 06:14:26;;;;;;;18.27;8.20;;;25.90;78.80;;;;;;5075825;28;20025;-72
2023/06/23 06:16:53;;;;;;;14.02;7.30;;;25.90;78.60;;;;;;5075262;28;20025;-72
2023/06/23 06:19:22;;;;;;;18.92;8.00;;;25.90;78.70;;;;;;5075568;28;20024;-73
2023/06/23 06:21:49;;;;;;;17.85;7.95;;;25.90;79.10;;;;;;5075408;28;20480;-73
2023/06/23 06:24:16;;;;;;;21.98;8.48;;;25.90;78.90;;;;;;5075579;28;20370;-74
2023/06/23 06:26:44;;;;;;;15.50;7.28;;;26.00;78.80;;;;;;5075048;28;20086;-73
2023/06/23 06:29:13;;;;;;;20.73;8.55;;;26.00;78.50;;;;;;5074735;28;20108;-74
2023/06/23 06:31:40;;;;;;;16.90;8.02;;;26.00;78.70;;;;;;5074913;28;20031;-74
2023/06/23 06:34:08;;;;;;;20.13;8.20;;;26.10;79.00;;;;;;5075234;28;20107;-71
2023/06/23 06:36:35;;;;;;;20.15;8.02;;;26.10;79.10;;;;;;5075143;28;20045;-72
2023/06/23 06:39:02;;;;;;;19.42;8.35;;;26.10;79.40;;;;;;5075288;28;20545;-72
2023/06/23 07:06:52;;;;;;;27.80;9.35;;;26.10;78.10;;;;;;5026573;28;20123;-72
2023/06/23 07:09:18;;;;;;;22.45;8.98;;;26.10;78.70;;;;;;5026423;28;20040;-72
2023/06/23 07:11:47;;;;;;;17.33;7.85;;;26.20;79.20;;;;;;5026600;28;20482;-72
2023/06/23 07:14:13;;;;;;;21.42;8.90;;;26.20;79.60;;;;;;5026789;28;20034;-72
2023/06/23 07:16:38;;;;;;;16.08;7.70;;;26.30;79.20;;;;;;5026598;28;20030;-72
2023/06/23 07:19:04;;;;;;;25.55;8.63;;;26.40;79.30;;;;;;5026685;28;20029;-72
2023/06/23 07:21:30;;;;;;;13.48;7.72;;;26.40;79.20;;;;;;5026371;28;20026;-72
2023/06/23 07:23:56;;;;;;;16.83;7.70;;;26.50;78.90;;;;;;5026610;28;20113;-72
2023/06/23 07:26:21;;;;;;;23.25;8.27;;;26.60;79.20;;;;;;5026688;28;20036;-73
2023/06/23 07:28:47;;;;;;;22.08;7.88;;;26.70;79.60;;;;;;5026541;28;20049;-73
2023/06/23 07:31:13;;;;;;;19.80;8.27;;;26.80;78.50;;;;;;5026290;28;20102;-72
2023/06/23 07:33:41;;;;;;;18.55;7.72;;;26.90;77.60;;;;;;5024975;28;20029;-72
2023/06/23 07:36:06;;;;;;;15.13;7.53;;;26.90;77.40;;;;;;5085033;23;20145;-73
2023/06/23 07:38:33;;;;;;;19.25;7.43;;;26.90;77.60;;;;;;5110009;28;20102;-72
2023/06/23 07:40:58;;;;;;;19.67;7.40;;;27.00;77.90;;;;;;5108871;28;20035;-73
2023/06/23 07:43:24;;;;;;;19.00;7.57;;;27.00;77.90;;;;;;5110082;28;20027;-72
2023/06/23 07:45:50;;;;;;;22.20;8.75;;;27.10;77.50;;;;;;5110202;28;20032;-72
2023/06/23 07:48:16;;;;;;;21.00;7.72;;;27.10;77.10;;;;;;5109952;28;20459;-72
2023/06/23 07:50:43;;;;;;;15.02;7.78;;;27.20;77.40;;;;;;5109779;28;20065;-72
2023/06/23 07:53:09;;;;;;;20.85;7.47;;;27.20;77.30;;;;;;5109127;28;20099;-73
2023/06/23 07:55:35;;;;;;;23.00;7.85;;;27.20;76.60;;;;;;5109832;28;20028;-72
2023/06/23 07:58:01;;;;;;;21.95;7.43;;;27.30;76.50;;;;;;5109809;28;20467;-72
2023/06/23 08:00:27;;;;;;;14.38;7.00;;;27.30;77.00;;;;;;5109326;28;20359;-72
2023/06/23 08:02:53;;;;;;;215.75;19.08;;;27.40;76.90;;;;;;5109398;28;20024;-71
2023/06/23 08:05:19;;;;;;;23.27;6.85;;;27.40;76.90;;;;;;5109644;28;20036;-71
2023/06/23 08:07:45;;;;;;;29.90;8.52;;;27.40;76.70;;;;;;5109723;28;20030;-72
2023/06/23 08:10:11;;;;;;;24.48;7.45;;;27.50;76.50;;;;;;5109741;28;20052;-71
2023/06/23 08:12:37;;;;;;;27.83;8.70;;;27.50;75.80;;;;;;5109902;28;20031;-70
2023/06/23 08:15:05;;;;;;;20.20;7.70;;;27.50;75.70;;;;;;5109314;28;20016;-71
2023/06/23 08:17:31;;;;;;;21.77;7.78;;;27.60;76.10;;;;;;5098978;28;20500;-70
2023/06/23 08:19:57;;;;;;;25.42;7.68;;;27.60;76.20;;;;;;5096048;28;20112;-70
2023/06/23 08:22:23;;;;;;;21.00;7.07;;;27.70;76.10;;;;;;5095730;28;20052;-71
2023/06/23 08:24:48;;;;;;;22.40;7.88;;;27.80;75.20;;;;;;5077600;28;20076;-70
2023/06/23 08:27:14;;;;;;;27.70;8.50;;;27.80;75.10;;;;;;5095657;28;20119;-71
2023/06/23 08:29:40;;;;;;;19.58;6.88;;;27.80;74.60;;;;;;5095890;28;20016;-71
2023/06/23 08:32:07;;;;;;;25.52;6.80;;;27.90;74.60;;;;;;5095465;28;20028;-70
2023/06/23 08:34:32;;;;;;;22.40;6.53;;;27.90;74.80;;;;;;5095768;28;20028;-71
2023/06/23 08:36:58;;;;;;;25.45;6.82;;;28.00;74.30;;;;;;5095221;28;20048;-72
2023/06/23 08:39:24;;;;;;;27.73;7.32;;;28.00;74.00;;;;;;5095143;28;20013;-71
2023/06/23 08:41:50;;;;;;;18.60;6.63;;;28.10;74.50;;;;;;5095192;28;20027;-71
2023/06/23 08:44:22;;;;;;;19.77;6.93;;;28.20;74.00;;;;;;5095381;28;20049;-71
2023/06/23 08:46:52;;;;;;;19.30;7.10;;;28.20;72.40;;;;;;5095612;28;20032;-72
2023/06/23 08:49:23;;;;;;;26.05;6.85;;;28.30;73.00;;;;;;5095484;28;20468;-72
2023/06/23 08:51:50;;;;;;;22.98;6.63;;;28.40;72.40;;;;;;5095240;28;20039;-71
2023/06/23 08:54:16;;;;;;;18.75;6.90;;;28.40;72.80;;;;;;5095382;28;20387;-72
2023/06/23 08:56:44;;;;;;;16.08;7.05;;;28.50;72.20;;;;;;5095178;28;20368;-72
2023/06/23 08:59:10;;;;;;;25.65;7.15;;;28.60;72.00;;;;;;5095410;28;20444;-72
2023/06/23 09:01:36;;;;;;;22.02;7.43;;;28.60;72.30;;;;;;5095303;28;20099;-72
2023/06/23 09:04:03;;;;;;;18.95;7.45;;;28.70;72.40;;;;;;5094921;28;20056;-72
2023/06/23 09:06:29;;;;;;;17.05;7.22;;;28.60;72.30;;;;;;5095035;28;20032;-72
2023/06/23 09:08:56;;;;;;;22.45;7.95;;;28.70;72.50;;;;;;5095042;28;20032;-71
2023/06/23 09:11:22;;;;;;;15.60;7.07;;;28.70;72.70;;;;;;5094918;28;20026;-72
2023/06/23 09:13:52;;;;;;;22.90;8.23;;;28.70;72.80;;;;;;5095053;28;20024;-72
2023/06/23 09:16:18;;;;;;;15.05;6.75;;;28.70;73.20;;;;;;5094981;28;20024;-73
2023/06/23 09:18:46;;;;;;;26.02;8.50;;;28.70;72.70;;;;;;5094425;28;20078;-72
2023/06/23 09:21:12;;;;;;;16.92;8.07;;;28.80;72.60;;;;;;5094383;28;20550;-72
2023/06/23 09:23:39;;;;;;;35.80;8.23;;;28.80;72.30;;;;;;5094537;28;20020;-72
2023/06/23 09:26:06;;;;;;;24.10;6.95;;;28.80;71.50;;;;;;5094047;28;20123;-72
2023/06/23 09:28:38;;;;;;;24.25;6.68;;;28.90;71.60;;;;;;5093464;28;20069;-72
2023/06/23 09:31:15;;;;;;;22.15;7.25;;;28.90;71.50;;;;;;5094917;28;20115;-72
2023/06/23 09:33:49;;;;;;;14.48;7.40;;;29.00;71.20;;;;;;5094682;28;20532;-73
2023/06/23 09:36:16;;;;;;;26.85;7.00;;;29.00;70.50;;;;;;5093111;28;20123;-72
2023/06/23 09:38:42;;;;;;;20.92;7.07;;;29.00;70.00;;;;;;5093711;28;20085;-72
2023/06/23 09:41:16;;;;;;;23.75;7.35;;;29.10;69.70;;;;;;5094484;28;20030;-72
2023/06/23 09:43:44;;;;;;;17.25;7.20;;;29.10;69.60;;;;;;5094505;28;20471;-72
2023/06/23 09:46:18;;;;;;;17.33;6.40;;;29.20;70.40;;;;;;5094388;28;20097;-72
2023/06/23 09:48:46;;;;;;;21.10;6.75;;;29.20;70.10;;;;;;5094337;28;20026;-72
2023/06/23 09:51:12;;;;;;;17.30;7.05;;;29.20;69.40;;;;;;5094318;28;20024;-72
2023/06/23 09:53:40;;;;;;;26.90;6.85;;;29.20;68.70;;;;;;5094011;28;20063;-72
2023/06/23 09:56:12;;;;;;;19.67;5.90;;;29.20;69.30;;;;;;5094119;28;20023;-72
2023/06/23 09:58:40;;;;;;;24.30;6.80;;;29.40;68.70;;;;;;5094274;28;20418;-72
2023/06/23 10:01:11;;;;;;;25.33;7.32;;;29.40;69.10;;;;;;5094204;28;20055;-72
2023/06/23 10:03:47;;;;;;;16.90;5.60;;;29.50;69.00;;;;;;5094192;28;20380;-72
2023/06/23 10:06:23;;;;;;;23.80;5.57;;;29.50;67.80;;;;;;5093834;28;20036;-73
2023/06/23 10:08:54;;;;;;;17.30;5.78;;;29.60;64.30;;;;;;5093890;28;20056;-72
2023/06/23 10:11:31;;;;;;;13.60;5.37;;;29.60;62.80;;;;;;5093061;28;20422;-72
2023/06/23 10:13:59;;;;;;;19.10;5.07;;;29.70;63.70;;;;;;5093853;28;20506;-72
2023/06/23 10:16:27;;;;;;;22.90;5.18;;;29.80;63.40;;;;;;5093651;28;20065;-72
2023/06/23 10:18:53;;;;;;;24.73;5.72;;;29.80;64.00;;;;;;5093824;28;20056;-72
2023/06/23 10:21:20;;;;;;;16.80;5.90;;;29.90;64.40;;;;;;5093524;28;20062;-73
2023/06/23 10:23:49;;;;;;;26.40;6.07;;;29.90;63.30;;;;;;5093414;28;20020;-72
2023/06/23 10:26:16;;;;;;;20.75;5.55;;;30.00;64.20;;;;;;5093403;28;20028;-76
2023/06/23 10:28:46;;;;;;;31.02;6.65;;;30.00;63.80;;;;;;5092980;28;20077;-76
2023/06/23 10:31:12;;;;;;;24.42;5.93;;;30.10;63.20;;;;;;5093239;28;20042;-79
2023/06/23 10:33:40;;;;;;;21.55;6.32;;;30.10;62.60;;;;;;5093577;28;20020;-73
2023/06/23 10:36:07;;;;;;;19.55;5.53;;;30.20;62.60;;;;;;5093418;28;20052;-72
2023/06/23 10:38:34;;;;;;;14.30;5.45;;;30.30;61.90;;;;;;5093249;28;20476;-72
2023/06/23 10:41:01;;;;;;;21.90;5.97;;;30.30;60.00;;;;;;5093144;28;20026;-73
2023/06/23 10:43:33;;;;;;;29.63;5.53;;;30.40;58.70;;;;;;5093501;28;20099;-72
2023/06/23 10:46:00;;;;;;;18.20;5.00;;;30.40;59.00;;;;;;5093424;28;20059;-73
2023/06/23 10:48:27;;;;;;;12.90;5.15;;;30.40;59.10;;;;;;5093071;28;20020;-73
2023/06/23 10:50:54;;;;;;;23.35;6.13;;;30.40;59.50;;;;;;5074943;28;20024;-72
2023/06/23 10:53:28;;;;;;;22.35;5.57;;;30.50;59.70;;;;;;5092993;28;20495;-73
2023/06/23 10:55:57;;;;;;;27.13;6.68;;;30.50;60.90;;;;;;5093108;28;20043;-72
2023/06/23 10:58:23;;;;;;;19.02;7.00;;;30.50;61.50;;;;;;5093205;28;20034;-72
2023/06/23 11:00:52;;;;;;;19.27;6.10;;;30.60;62.50;;;;;;5093200;28;20492;-72
2023/06/23 11:03:27;;;;;;;23.02;6.97;;;30.60;62.60;;;;;;5092913;28;20051;-73
2023/06/23 11:05:55;;;;;;;30.55;7.00;;;30.70;63.40;;;;;;5092849;28;20118;-72
2023/06/23 11:08:28;;;;;;;27.80;6.78;;;30.70;63.60;;;;;;5092861;28;20020;-74
2023/06/23 11:10:59;;;;;;;29.52;6.32;;;30.70;62.80;;;;;;5092864;28;20020;-73
2023/06/23 11:13:32;;;;;;;;;;;30.80;62.20;;;;;;5091272;28;20797;-73
2023/06/23 11:16:00;;;;;;;23.92;6.25;;;30.80;63.50;;;;;;5090135;28;20356;-74
2023/06/23 11:18:26;;;;;;;30.52;7.00;;;30.80;63.40;;;;;;5091314;28;20059;-73
2023/06/23 11:20:54;;;;;;;16.52;6.85;;;30.90;64.90;;;;;;5092965;28;20031;-73
2023/06/23 11:23:19;;;;;;;22.23;7.30;;;30.90;66.40;;;;;;5092943;28;20081;-73
2023/06/23 11:25:49;;;;;;;30.55;7.80;;;30.90;65.90;;;;;;5092887;28;20032;-74
2023/06/23 11:28:26;;;;;;;18.50;6.93;;;30.90;65.80;;;;;;5092810;28;20024;-73
2023/06/23 11:31:15;;;;;;;20.00;6.35;;;30.90;65.70;;;;;;5093047;28;20028;-73
2023/06/23 11:33:43;;;;;;;22.20;6.93;;;30.80;66.20;;;;;;5092913;28;20544;-73
2023/06/23 11:36:13;;;;;;;22.95;6.57;;;30.80;65.60;;;;;;5101396;28;20103;-73
2023/06/23 11:38:42;;;;;;;23.97;6.53;;;30.80;66.20;;;;;;5110336;28;20525;-73
2023/06/23 11:41:08;;;;;;;18.45;6.15;;;30.80;66.80;;;;;;5110273;28;20301;-73
2023/06/23 11:43:35;;;;;;;18.38;6.22;;;30.80;67.10;;;;;;5103941;28;20024;-74
2023/06/23 11:46:07;;;;;;;22.67;6.22;;;30.80;68.10;;;;;;5092294;28;20027;-74
2023/06/23 11:48:33;;;;;;;20.17;7.10;;;30.80;68.50;;;;;;5092399;28;20032;-74
2023/06/23 11:50:59;;;;;;;18.05;6.13;;;30.90;68.70;;;;;;5092198;28;20034;-74
2023/06/23 11:53:26;;;;;;;18.13;6.13;;;30.90;68.20;;;;;;5095922;28;20073;-73
2023/06/23 11:55:53;;;;;;;19.15;6.00;;;30.90;67.60;;;;;;5096484;28;20103;-73
2023/06/23 11:58:19;;;;;;;24.83;5.57;;;30.90;66.90;;;;;;5096222;28;20106;-73
2023/06/23 12:00:45;;;;;;;20.92;6.00;;;30.90;66.30;;;;;;5096098;28;20102;-73
2023/06/23 12:03:15;;;;;;;22.63;6.13;;;30.90;65.50;;;;;;5096027;28;20046;-72
2023/06/23 12:05:44;;;;;;;19.65;5.60;;;30.90;64.70;;;;;;5096086;28;20068;-72
2023/06/23 12:08:10;;;;;;;15.75;6.13;;;31.00;64.70;;;;;;5096150;28;20380;-71
2023/06/23 12:10:40;;;;;;;16.02;5.47;;;31.00;64.90;;;;;;5095843;28;20034;-73
2023/06/23 12:13:10;;;;;;;24.35;6.03;;;31.00;64.70;;;;;;5095121;28;20024;-74
2023/06/23 12:15:43;;;;;;;15.65;6.13;;;31.10;64.80;;;;;;5095906;28;20024;-73
2023/06/23 12:18:10;;;;;;;20.58;5.75;;;31.10;64.30;;;;;;5095967;28;20104;-73
2023/06/23 12:20:36;;;;;;;16.40;5.80;;;31.00;63.90;;;;;;5095669;28;20029;-74
2023/06/23 12:23:05;;;;;;;19.98;6.75;;;31.00;63.80;;;;;;5095722;28;20047;-74
2023/06/23 12:25:37;;;;;;;13.38;6.00;;;31.00;64.10;;;;;;5095486;28;20036;-73
2023/06/23 12:28:05;;;;;;;19.27;6.32;;;31.00;64.90;;;;;;5095726;28;20045;-74
2023/06/23 12:30:43;;;;;;;12.48;5.80;;;31.00;64.20;;;;;;5095968;28;20039;-74
2023/06/23 12:33:16;;;;;;;16.42;6.50;;;31.00;64.00;;;;;;5096019;28;20111;-73
2023/06/23 12:36:14;;;;;;;19.15;6.40;;;31.00;64.30;;;;;;5095534;28;20500;-77
2023/06/23 12:38:40;;;;;;;16.65;6.28;;;31.00;65.20;;;;;;5095550;28;20028;-77
2023/06/23 12:41:26;;;;;;;14.57;5.20;;;31.00;63.70;;;;;;5095584;28;20020;-77
2023/06/23 12:43:59;;;;;;;21.08;5.82;;;31.00;63.70;;;;;;5095442;28;20101;-74
2023/06/23 12:46:25;;;;;;;17.13;5.72;;;31.00;63.40;;;;;;5095141;28;20062;-75
2023/06/23 12:48:51;;;;;;;24.50;5.80;;;31.00;63.80;;;;;;5095127;28;20032;-78
2023/06/23 12:51:18;;;;;;;10.90;5.50;;;31.00;64.00;;;;;;5095087;28;20024;-77
2023/06/23 12:53:44;;;;;;;16.42;5.97;;;31.10;64.50;;;;;;5095372;28;20056;-77
2023/06/23 12:56:11;;;;;;;19.95;6.35;;;31.10;65.40;;;;;;5095293;28;20016;-77
2023/06/23 12:58:37;;;;;;;15.38;5.88;;;31.10;65.50;;;;;;5095216;28;20032;-77
2023/06/23 13:01:03;;;;;;;28.58;6.30;;;31.10;65.40;;;;;;5094954;28;20364;-76
2023/06/23 13:03:29;;;;;;;23.90;6.60;;;31.10;65.10;;;;;;5095016;28;20028;-77
2023/06/23 13:05:56;;;;;;;21.05;5.70;;;31.10;63.90;;;;;;5095069;28;20047;-77
2023/06/23 13:08:22;;;;;;;25.48;6.18;;;31.10;63.10;;;;;;5094772;28;20402;-77
2023/06/23 13:10:48;;;;;;;23.80;5.80;;;31.10;63.00;;;;;;5094673;28;20031;-77
2023/06/23 13:13:13;;;;;;;16.02;5.32;;;31.10;62.60;;;;;;5094596;28;20024;-76